sensor_id;sensor_type;location;lat;lon;timestamp;temperature;humidity
9305;DHT22;4690;52.422;13.486;2023-07-31T00:05:54;16.40;99.90
9305;DHT22;4690;52.422;13.486;2023-07-31T00:08:19;16.30;99.90
9305;DHT22;4690;52.422;13.486;2023-07-31T00:10:45;16.30;99.90
9305;DHT22;4690;52.422;13.486;2023-07-31T00:13:11;16.30;99.90
9305;DHT22;4690;52.422;13.486;2023-07-31T00:15:36;16.30;99.90
9305;DHT22;4690;52.422;13.486;2023-07-31T00:18:02;16.20;99.90
9305;DHT22;4690;52.422;13.486;2023-07-31T00:20:28;16.20;99.90
9305;DHT22;4690;52.422;13.486;2023-07-31T00:22:54;16.10;99.90
9305;DHT22;4690;52.422;13.486;2023-07-31T00:25:19;16.10;99.90
9305;DHT22;4690;52.422;13.486;2023-07-31T00:27:45;16.00;99.90
9305;DHT22;4690;52.422;13.486;2023-07-31T00:30:11;16.00;99.90
9305;DHT22;4690;52.422;13.486;2023-07-31T00:32:37;16.00;99.90
9305;DHT22;4690;52.422;13.486;2023-07-31T00:35:03;16.00;99.90
9305;DHT22;4690;52.422;13.486;2023-07-31T00:37:29;16.00;99.90
9305;DHT22;4690;52.422;13.486;2023-07-31T00:39:55;16.00;99.90
9305;DHT22;4690;52.422;13.486;2023-07-31T00:42:21;16.00;99.90
9305;DHT22;4690;52.422;13.486;2023-07-31T00:44:46;16.00;99.90
9305;DHT22;4690;52.422;13.486;2023-07-31T00:47:12;16.00;99.90
9305;DHT22;4690;52.422;13.486;2023-07-31T00:49:38;16.00;99.90
9305;DHT22;4690;52.422;13.486;2023-07-31T00:52:04;16.00;99.90
9305;DHT22;4690;52.422;13.486;2023-07-31T00:54:30;16.00;99.90
9305;DHT22;4690;52.422;13.486;2023-07-31T00:56:56;16.00;99.90
9305;DHT22;4690;52.422;13.486;2023-07-31T00:59:23;16.00;99.90
9305;DHT22;4690;52.422;13.486;2023-07-31T01:01:49;16.10;99.90
9305;DHT22;4690;52.422;13.486;2023-07-31T01:04:16;16.00;99.90
9305;DHT22;4690;52.422;13.486;2023-07-31T01:06:55;16.00;99.90
9305;DHT22;4690;52.422;13.486;2023-07-31T01:09:43;16.00;99.90
9305;DHT22;4690;52.422;13.486;2023-07-31T01:12:16;15.90;99.90
9305;DHT22;4690;52.422;13.486;2023-07-31T01:17:30;15.90;99.90
9305;DHT22;4690;52.422;13.486;2023-07-31T01:20:00;16.00;99.90
9305;DHT22;4690;52.422;13.486;2023-07-31T01:26:11;15.90;99.90
9305;DHT22;4690;52.422;13.486;2023-07-31T01:28:56;16.00;99.90
9305;DHT22;4690;52.422;13.486;2023-07-31T01:31:29;16.00;99.90
9305;DHT22;4690;52.422;13.486;2023-07-31T01:34:00;16.10;99.90
9305;DHT22;4690;52.422;13.486;2023-07-31T01:36:28;16.10;99.90
9305;DHT22;4690;52.422;13.486;2023-07-31T01:39:00;16.10;99.90
9305;DHT22;4690;52.422;13.486;2023-07-31T01:41:27;16.10;99.90
9305;DHT22;4690;52.422;13.486;2023-07-31T01:43:53;16.10;99.90
9305;DHT22;4690;52.422;13.486;2023-07-31T01:46:19;16.10;99.90
9305;DHT22;4690;52.422;13.486;2023-07-31T01:48:45;16.10;99.90
9305;DHT22;4690;52.422;13.486;2023-07-31T01:51:10;16.10;99.90
9305;DHT22;4690;52.422;13.486;2023-07-31T01:53:36;16.10;99.90
9305;DHT22;4690;52.422;13.486;2023-07-31T01:56:02;16.10;99.90
9305;DHT22;4690;52.422;13.486;2023-07-31T01:58:28;16.10;99.90
9305;DHT22;4690;52.422;13.486;2023-07-31T02:00:53;16.10;99.90
9305;DHT22;4690;52.422;13.486;2023-07-31T02:03:19;16.10;99.90
9305;DHT22;4690;52.422;13.486;2023-07-31T02:05:48;16.20;99.90
9305;DHT22;4690;52.422;13.486;2023-07-31T02:08:15;16.10;99.90
9305;DHT22;4690;52.422;13.486;2023-07-31T02:10:42;16.10;99.90
9305;DHT22;4690;52.422;13.486;2023-07-31T02:13:08;16.10;99.90
9305;DHT22;4690;52.422;13.486;2023-07-31T02:15:35;16.00;99.90
9305;DHT22;4690;52.422;13.486;2023-07-31T02:18:00;16.00;99.90
9305;DHT22;4690;52.422;13.486;2023-07-31T02:20:26;16.00;99.90
9305;DHT22;4690;52.422;13.486;2023-07-31T02:22:52;16.00;99.90
9305;DHT22;4690;52.422;13.486;2023-07-31T02:25:17;15.90;99.90
9305;DHT22;4690;52.422;13.486;2023-07-31T02:27:43;15.90;99.90
9305;DHT22;4690;52.422;13.486;2023-07-31T02:30:09;16.00;99.90
9305;DHT22;4690;52.422;13.486;2023-07-31T02:32:36;15.90;99.90
9305;DHT22;4690;52.422;13.486;2023-07-31T02:35:01;15.90;99.90
9305;DHT22;4690;52.422;13.486;2023-07-31T02:37:27;16.00;99.90
9305;DHT22;4690;52.422;13.486;2023-07-31T02:39:54;16.00;99.90
9305;DHT22;4690;52.422;13.486;2023-07-31T02:42:20;16.00;99.90
9305;DHT22;4690;52.422;13.486;2023-07-31T02:44:46;16.00;99.90
9305;DHT22;4690;52.422;13.486;2023-07-31T02:47:12;16.00;99.90
9305;DHT22;4690;52.422;13.486;2023-07-31T02:49:38;16.00;99.90
9305;DHT22;4690;52.422;13.486;2023-07-31T02:52:04;16.00;99.90
9305;DHT22;4690;52.422;13.486;2023-07-31T02:54:29;15.90;99.90
9305;DHT22;4690;52.422;13.486;2023-07-31T02:56:55;15.90;99.90
9305;DHT22;4690;52.422;13.486;2023-07-31T02:59:21;15.90;99.90
9305;DHT22;4690;52.422;13.486;2023-07-31T03:01:47;15.80;99.90
9305;DHT22;4690;52.422;13.486;2023-07-31T03:04:12;15.80;99.90
9305;DHT22;4690;52.422;13.486;2023-07-31T03:06:38;15.80;99.90
9305;DHT22;4690;52.422;13.486;2023-07-31T03:09:04;15.80;99.90
9305;DHT22;4690;52.422;13.486;2023-07-31T03:11:29;15.80;99.90
9305;DHT22;4690;52.422;13.486;2023-07-31T03:13:55;15.80;99.90
9305;DHT22;4690;52.422;13.486;2023-07-31T03:16:21;15.80;99.90
9305;DHT22;4690;52.422;13.486;2023-07-31T03:18:47;15.70;99.90
9305;DHT22;4690;52.422;13.486;2023-07-31T03:21:12;15.70;99.90
9305;DHT22;4690;52.422;13.486;2023-07-31T03:23:38;15.70;99.90
9305;DHT22;4690;52.422;13.486;2023-07-31T03:26:06;15.70;99.90
9305;DHT22;4690;52.422;13.486;2023-07-31T03:28:33;15.40;99.90
9305;DHT22;4690;52.422;13.486;2023-07-31T03:30:59;15.30;99.90
9305;DHT22;4690;52.422;13.486;2023-07-31T03:33:25;15.20;99.90
9305;DHT22;4690;52.422;13.486;2023-07-31T03:35:52;15.20;99.90
9305;DHT22;4690;52.422;13.486;2023-07-31T03:38:18;15.30;99.90
9305;DHT22;4690;52.422;13.486;2023-07-31T03:40:44;15.20;99.90
9305;DHT22;4690;52.422;13.486;2023-07-31T03:43:10;15.20;99.90
9305;DHT22;4690;52.422;13.486;2023-07-31T03:45:36;15.20;99.90
9305;DHT22;4690;52.422;13.486;2023-07-31T03:48:03;15.10;99.90
9305;DHT22;4690;52.422;13.486;2023-07-31T03:50:29;15.10;99.90
9305;DHT22;4690;52.422;13.486;2023-07-31T03:52:55;15.20;99.90
9305;DHT22;4690;52.422;13.486;2023-07-31T03:55:20;15.30;99.90
9305;DHT22;4690;52.422;13.486;2023-07-31T03:57:47;15.20;99.90
9305;DHT22;4690;52.422;13.486;2023-07-31T04:00:13;15.10;99.90
9305;DHT22;4690;52.422;13.486;2023-07-31T04:02:39;15.20;99.90
9305;DHT22;4690;52.422;13.486;2023-07-31T04:05:05;15.20;99.90
9305;DHT22;4690;52.422;13.486;2023-07-31T04:07:33;15.30;99.90
9305;DHT22;4690;52.422;13.486;2023-07-31T04:09:59;15.30;99.90
9305;DHT22;4690;52.422;13.486;2023-07-31T04:12:25;15.40;99.90
9305;DHT22;4690;52.422;13.486;2023-07-31T04:14:51;15.50;99.90
9305;DHT22;4690;52.422;13.486;2023-07-31T04:17:18;15.60;99.90
9305;DHT22;4690;52.422;13.486;2023-07-31T04:19:43;15.70;99.90
9305;DHT22;4690;52.422;13.486;2023-07-31T04:22:09;15.70;99.90
9305;DHT22;4690;52.422;13.486;2023-07-31T04:24:35;15.70;99.90
9305;DHT22;4690;52.422;13.486;2023-07-31T04:27:01;15.60;99.90
9305;DHT22;4690;52.422;13.486;2023-07-31T04:29:26;15.50;99.90
9305;DHT22;4690;52.422;13.486;2023-07-31T04:31:52;15.50;99.90
9305;DHT22;4690;52.422;13.486;2023-07-31T04:34:18;15.40;99.90
9305;DHT22;4690;52.422;13.486;2023-07-31T04:36:44;15.40;99.90
9305;DHT22;4690;52.422;13.486;2023-07-31T04:39:09;15.40;99.90
9305;DHT22;4690;52.422;13.486;2023-07-31T04:41:35;15.40;99.90
9305;DHT22;4690;52.422;13.486;2023-07-31T04:44:01;15.40;99.90
9305;DHT22;4690;52.422;13.486;2023-07-31T04:46:29;15.40;99.90
9305;DHT22;4690;52.422;13.486;2023-07-31T04:48:56;15.40;99.90
9305;DHT22;4690;52.422;13.486;2023-07-31T04:51:21;15.40;99.90
9305;DHT22;4690;52.422;13.486;2023-07-31T04:53:48;15.40;99.90
9305;DHT22;4690;52.422;13.486;2023-07-31T04:56:15;15.40;99.90
9305;DHT22;4690;52.422;13.486;2023-07-31T04:58:41;15.60;99.90
9305;DHT22;4690;52.422;13.486;2023-07-31T05:01:07;15.50;99.90
9305;DHT22;4690;52.422;13.486;2023-07-31T05:03:33;15.50;99.90
9305;DHT22;4690;52.422;13.486;2023-07-31T05:05:59;15.50;99.90
9305;DHT22;4690;52.422;13.486;2023-07-31T05:08:24;15.50;99.90
9305;DHT22;4690;52.422;13.486;2023-07-31T05:10:50;15.60;99.90
9305;DHT22;4690;52.422;13.486;2023-07-31T05:13:16;15.70;99.90
9305;DHT22;4690;52.422;13.486;2023-07-31T05:15:41;15.60;99.90
9305;DHT22;4690;52.422;13.486;2023-07-31T05:18:07;15.60;99.90
9305;DHT22;4690;52.422;13.486;2023-07-31T05:20:33;15.60;99.90
9305;DHT22;4690;52.422;13.486;2023-07-31T05:22:59;15.60;99.90
9305;DHT22;4690;52.422;13.486;2023-07-31T05:25:24;15.60;99.90
9305;DHT22;4690;52.422;13.486;2023-07-31T05:27:50;15.60;99.90
9305;DHT22;4690;52.422;13.486;2023-07-31T05:30:16;15.60;99.90
9305;DHT22;4690;52.422;13.486;2023-07-31T05:32:42;15.60;99.90
9305;DHT22;4690;52.422;13.486;2023-07-31T05:35:07;15.60;99.90
9305;DHT22;4690;52.422;13.486;2023-07-31T05:37:34;15.60;99.90
9305;DHT22;4690;52.422;13.486;2023-07-31T05:40:00;15.50;99.90
9305;DHT22;4690;52.422;13.486;2023-07-31T05:42:25;15.60;99.90
9305;DHT22;4690;52.422;13.486;2023-07-31T05:44:51;15.60;99.90
9305;DHT22;4690;52.422;13.486;2023-07-31T05:47:17;15.60;99.90
9305;DHT22;4690;52.422;13.486;2023-07-31T05:49:43;15.60;99.90
9305;DHT22;4690;52.422;13.486;2023-07-31T05:52:09;15.60;99.90
9305;DHT22;4690;52.422;13.486;2023-07-31T05:54:35;15.60;99.90
9305;DHT22;4690;52.422;13.486;2023-07-31T05:57:01;15.60;99.90
9305;DHT22;4690;52.422;13.486;2023-07-31T05:59:26;15.70;99.90
9305;DHT22;4690;52.422;13.486;2023-07-31T06:01:53;15.60;99.90
9305;DHT22;4690;52.422;13.486;2023-07-31T06:04:18;15.70;99.90
9305;DHT22;4690;52.422;13.486;2023-07-31T06:06:44;15.70;99.90
9305;DHT22;4690;52.422;13.486;2023-07-31T06:09:10;15.70;99.90
9305;DHT22;4690;52.422;13.486;2023-07-31T06:11:37;15.80;99.90
9305;DHT22;4690;52.422;13.486;2023-07-31T06:14:02;15.80;99.90
9305;DHT22;4690;52.422;13.486;2023-07-31T06:16:28;15.80;99.90
9305;DHT22;4690;52.422;13.486;2023-07-31T06:18:54;15.80;99.90
9305;DHT22;4690;52.422;13.486;2023-07-31T06:21:20;15.80;99.90
9305;DHT22;4690;52.422;13.486;2023-07-31T06:23:45;15.80;99.90
9305;DHT22;4690;52.422;13.486;2023-07-31T06:26:11;15.90;99.90
9305;DHT22;4690;52.422;13.486;2023-07-31T06:28:37;15.80;99.90
9305;DHT22;4690;52.422;13.486;2023-07-31T06:31:02;15.90;99.90
9305;DHT22;4690;52.422;13.486;2023-07-31T06:33:28;15.90;99.90
9305;DHT22;4690;52.422;13.486;2023-07-31T06:35:54;15.90;99.90
9305;DHT22;4690;52.422;13.486;2023-07-31T06:38:24;15.90;99.90
9305;DHT22;4690;52.422;13.486;2023-07-31T06:40:51;15.90;99.90
9305;DHT22;4690;52.422;13.486;2023-07-31T06:43:17;15.90;99.90
9305;DHT22;4690;52.422;13.486;2023-07-31T06:45:43;15.90;99.90
9305;DHT22;4690;52.422;13.486;2023-07-31T06:48:09;15.90;99.90
9305;DHT22;4690;52.422;13.486;2023-07-31T06:50:34;16.00;99.90
9305;DHT22;4690;52.422;13.486;2023-07-31T06:53:00;16.00;99.90
9305;DHT22;4690;52.422;13.486;2023-07-31T06:55:26;16.00;99.90
9305;DHT22;4690;52.422;13.486;2023-07-31T06:57:54;15.90;99.90
9305;DHT22;4690;52.422;13.486;2023-07-31T07:00:22;16.00;99.90
9305;DHT22;4690;52.422;13.486;2023-07-31T07:02:49;16.00;99.90
9305;DHT22;4690;52.422;13.486;2023-07-31T07:05:16;16.00;99.90
9305;DHT22;4690;52.422;13.486;2023-07-31T07:07:43;16.00;99.90
9305;DHT22;4690;52.422;13.486;2023-07-31T07:10:09;16.00;99.90
9305;DHT22;4690;52.422;13.486;2023-07-31T07:12:35;16.10;99.90
9305;DHT22;4690;52.422;13.486;2023-07-31T07:15:02;16.00;99.90
9305;DHT22;4690;52.422;13.486;2023-07-31T07:17:29;16.00;99.90
9305;DHT22;4690;52.422;13.486;2023-07-31T07:19:57;16.00;99.90
9305;DHT22;4690;52.422;13.486;2023-07-31T07:22:23;16.00;99.90
9305;DHT22;4690;52.422;13.486;2023-07-31T07:24:49;16.00;99.90
9305;DHT22;4690;52.422;13.486;2023-07-31T07:27:15;16.00;99.90
9305;DHT22;4690;52.422;13.486;2023-07-31T07:29:41;16.00;99.90
9305;DHT22;4690;52.422;13.486;2023-07-31T07:32:07;16.00;99.90
9305;DHT22;4690;52.422;13.486;2023-07-31T07:34:33;16.00;99.90
9305;DHT22;4690;52.422;13.486;2023-07-31T07:36:59;16.10;99.90
9305;DHT22;4690;52.422;13.486;2023-07-31T07:39:24;16.20;99.90
9305;DHT22;4690;52.422;13.486;2023-07-31T07:41:50;16.20;99.90
9305;DHT22;4690;52.422;13.486;2023-07-31T07:44:16;16.20;99.90
9305;DHT22;4690;52.422;13.486;2023-07-31T07:46:42;16.10;99.90
9305;DHT22;4690;52.422;13.486;2023-07-31T07:49:08;16.20;99.90
9305;DHT22;4690;52.422;13.486;2023-07-31T07:51:34;16.20;99.90
9305;DHT22;4690;52.422;13.486;2023-07-31T07:54:00;16.40;99.90
9305;DHT22;4690;52.422;13.486;2023-07-31T07:56:27;16.40;99.90
9305;DHT22;4690;52.422;13.486;2023-07-31T07:58:53;16.50;99.90
9305;DHT22;4690;52.422;13.486;2023-07-31T08:01:19;16.40;99.90
9305;DHT22;4690;52.422;13.486;2023-07-31T08:03:46;16.50;99.90
9305;DHT22;4690;52.422;13.486;2023-07-31T08:06:12;16.50;99.90
9305;DHT22;4690;52.422;13.486;2023-07-31T08:08:40;16.50;99.90
9305;DHT22;4690;52.422;13.486;2023-07-31T08:11:06;16.50;99.90
9305;DHT22;4690;52.422;13.486;2023-07-31T08:13:32;16.50;99.90
9305;DHT22;4690;52.422;13.486;2023-07-31T08:15:58;16.50;99.90
9305;DHT22;4690;52.422;13.486;2023-07-31T08:18:24;16.50;99.90
9305;DHT22;4690;52.422;13.486;2023-07-31T08:20:49;16.50;99.90
9305;DHT22;4690;52.422;13.486;2023-07-31T08:23:15;16.50;99.90
9305;DHT22;4690;52.422;13.486;2023-07-31T08:25:41;16.50;99.90
9305;DHT22;4690;52.422;13.486;2023-07-31T08:28:07;16.50;99.90
9305;DHT22;4690;52.422;13.486;2023-07-31T08:30:33;16.50;99.90
9305;DHT22;4690;52.422;13.486;2023-07-31T08:32:59;16.50;99.90
9305;DHT22;4690;52.422;13.486;2023-07-31T08:35:26;16.60;99.90
9305;DHT22;4690;52.422;13.486;2023-07-31T08:37:54;16.60;99.90
9305;DHT22;4690;52.422;13.486;2023-07-31T08:40:20;16.70;99.90
9305;DHT22;4690;52.422;13.486;2023-07-31T08:42:48;16.70;99.90
9305;DHT22;4690;52.422;13.486;2023-07-31T08:45:17;16.80;99.90
9305;DHT22;4690;52.422;13.486;2023-07-31T08:47:52;16.90;99.90
9305;DHT22;4690;52.422;13.486;2023-07-31T08:50:19;16.90;99.90
9305;DHT22;4690;52.422;13.486;2023-07-31T08:52:47;17.00;99.90
9305;DHT22;4690;52.422;13.486;2023-07-31T08:55:15;16.90;99.90
9305;DHT22;4690;52.422;13.486;2023-07-31T08:57:42;17.00;99.90
9305;DHT22;4690;52.422;13.486;2023-07-31T09:00:10;17.10;99.90
9305;DHT22;4690;52.422;13.486;2023-07-31T09:02:51;17.00;99.90
9305;DHT22;4690;52.422;13.486;2023-07-31T09:05:31;17.00;99.90
9305;DHT22;4690;52.422;13.486;2023-07-31T09:07:58;17.10;99.90
9305;DHT22;4690;52.422;13.486;2023-07-31T09:10:24;17.20;99.90
9305;DHT22;4690;52.422;13.486;2023-07-31T09:12:53;17.20;99.90
9305;DHT22;4690;52.422;13.486;2023-07-31T09:15:19;17.20;99.90
9305;DHT22;4690;52.422;13.486;2023-07-31T09:17:46;17.30;99.90
9305;DHT22;4690;52.422;13.486;2023-07-31T09:20:18;17.50;99.90
9305;DHT22;4690;52.422;13.486;2023-07-31T09:22:45;17.60;99.90
9305;DHT22;4690;52.422;13.486;2023-07-31T09:25:16;17.70;99.90
9305;DHT22;4690;52.422;13.486;2023-07-31T09:28:03;17.80;99.90
9305;DHT22;4690;52.422;13.486;2023-07-31T09:30:32;17.80;99.90
9305;DHT22;4690;52.422;13.486;2023-07-31T09:33:10;17.70;99.90
9305;DHT22;4690;52.422;13.486;2023-07-31T09:35:36;17.60;99.90
9305;DHT22;4690;52.422;13.486;2023-07-31T09:38:06;17.50;99.90
9305;DHT22;4690;52.422;13.486;2023-07-31T09:40:38;17.30;99.90
9305;DHT22;4690;52.422;13.486;2023-07-31T09:43:08;17.30;99.90
9305;DHT22;4690;52.422;13.486;2023-07-31T09:45:37;17.20;99.90
9305;DHT22;4690;52.422;13.486;2023-07-31T09:48:07;17.30;99.90
9305;DHT22;4690;52.422;13.486;2023-07-31T09:50:40;17.40;99.90
9305;DHT22;4690;52.422;13.486;2023-07-31T09:53:08;17.50;99.90
9305;DHT22;4690;52.422;13.486;2023-07-31T09:55:35;17.50;99.90
9305;DHT22;4690;52.422;13.486;2023-07-31T09:58:10;17.60;99.90
9305;DHT22;4690;52.422;13.486;2023-07-31T10:00:36;17.70;99.90
9305;DHT22;4690;52.422;13.486;2023-07-31T10:03:08;17.80;99.90
9305;DHT22;4690;52.422;13.486;2023-07-31T10:05:55;17.80;99.90
9305;DHT22;4690;52.422;13.486;2023-07-31T10:08:27;17.80;99.90
9305;DHT22;4690;52.422;13.486;2023-07-31T10:10:58;17.90;99.90
9305;DHT22;4690;52.422;13.486;2023-07-31T10:13:28;18.00;99.90
9305;DHT22;4690;52.422;13.486;2023-07-31T10:15:58;18.00;99.90
9305;DHT22;4690;52.422;13.486;2023-07-31T10:18:26;18.00;99.90
9305;DHT22;4690;52.422;13.486;2023-07-31T10:20:54;18.00;99.90
9305;DHT22;4690;52.422;13.486;2023-07-31T14:11:39;21.60;99.90
9305;DHT22;4690;52.422;13.486;2023-07-31T14:14:05;21.50;99.90
9305;DHT22;4690;52.422;13.486;2023-07-31T14:16:30;21.50;99.90
9305;DHT22;4690;52.422;13.486;2023-07-31T14:18:56;21.60;99.90
9305;DHT22;4690;52.422;13.486;2023-07-31T14:21:25;21.60;99.90
9305;DHT22;4690;52.422;13.486;2023-07-31T14:23:51;21.60;99.90
9305;DHT22;4690;52.422;13.486;2023-07-31T14:26:17;21.60;99.90
9305;DHT22;4690;52.422;13.486;2023-07-31T14:28:43;21.60;99.90
9305;DHT22;4690;52.422;13.486;2023-07-31T14:31:09;21.50;99.90
9305;DHT22;4690;52.422;13.486;2023-07-31T14:33:34;21.50;99.90
9305;DHT22;4690;52.422;13.486;2023-07-31T14:36:00;21.40;99.90
9305;DHT22;4690;52.422;13.486;2023-07-31T14:38:26;21.50;99.90
9305;DHT22;4690;52.422;13.486;2023-07-31T14:40:52;21.50;99.90
9305;DHT22;4690;52.422;13.486;2023-07-31T14:43:18;21.50;99.90
9305;DHT22;4690;52.422;13.486;2023-07-31T14:45:43;21.60;99.90
9305;DHT22;4690;52.422;13.486;2023-07-31T14:48:11;21.50;99.90
9305;DHT22;4690;52.422;13.486;2023-07-31T14:50:37;21.50;99.90
9305;DHT22;4690;52.422;13.486;2023-07-31T14:53:03;21.60;99.90
9305;DHT22;4690;52.422;13.486;2023-07-31T14:55:29;21.60;99.90
9305;DHT22;4690;52.422;13.486;2023-07-31T14:57:55;21.60;99.90
9305;DHT22;4690;52.422;13.486;2023-07-31T15:00:20;21.60;99.90
9305;DHT22;4690;52.422;13.486;2023-07-31T15:02:46;21.60;99.90
9305;DHT22;4690;52.422;13.486;2023-07-31T15:05:12;21.60;99.90
9305;DHT22;4690;52.422;13.486;2023-07-31T15:07:38;21.60;99.90
9305;DHT22;4690;52.422;13.486;2023-07-31T15:10:04;21.50;99.90
9305;DHT22;4690;52.422;13.486;2023-07-31T15:12:31;21.50;99.90
9305;DHT22;4690;52.422;13.486;2023-07-31T15:14:57;21.50;99.90
9305;DHT22;4690;52.422;13.486;2023-07-31T15:17:23;21.40;99.90
9305;DHT22;4690;52.422;13.486;2023-07-31T15:19:49;21.40;99.90
9305;DHT22;4690;52.422;13.486;2023-07-31T15:22:15;21.40;99.90
9305;DHT22;4690;52.422;13.486;2023-07-31T15:24:41;21.40;99.90
9305;DHT22;4690;52.422;13.486;2023-07-31T15:27:06;21.40;99.90
9305;DHT22;4690;52.422;13.486;2023-07-31T15:29:33;21.40;99.90
9305;DHT22;4690;52.422;13.486;2023-07-31T15:32:05;21.40;99.90
9305;DHT22;4690;52.422;13.486;2023-07-31T15:34:31;21.40;99.90
9305;DHT22;4690;52.422;13.486;2023-07-31T15:36:57;21.30;99.90
9305;DHT22;4690;52.422;13.486;2023-07-31T15:39:23;21.30;99.90
9305;DHT22;4690;52.422;13.486;2023-07-31T15:41:48;21.20;99.90
9305;DHT22;4690;52.422;13.486;2023-07-31T15:44:14;21.20;99.90
9305;DHT22;4690;52.422;13.486;2023-07-31T15:46:40;21.20;99.90
9305;DHT22;4690;52.422;13.486;2023-07-31T15:49:06;21.20;99.90
9305;DHT22;4690;52.422;13.486;2023-07-31T15:51:32;21.30;99.90
9305;DHT22;4690;52.422;13.486;2023-07-31T15:53:59;21.30;99.90
9305;DHT22;4690;52.422;13.486;2023-07-31T15:56:24;21.40;99.90
9305;DHT22;4690;52.422;13.486;2023-07-31T15:58:50;21.40;99.90
9305;DHT22;4690;52.422;13.486;2023-07-31T16:01:17;21.40;99.90
9305;DHT22;4690;52.422;13.486;2023-07-31T16:03:43;21.40;99.90
9305;DHT22;4690;52.422;13.486;2023-07-31T16:06:08;21.50;99.90
9305;DHT22;4690;52.422;13.486;2023-07-31T16:08:34;21.50;99.90
9305;DHT22;4690;52.422;13.486;2023-07-31T16:11:07;21.50;99.90
9305;DHT22;4690;52.422;13.486;2023-07-31T16:13:33;21.50;99.90
9305;DHT22;4690;52.422;13.486;2023-07-31T16:15:59;21.50;99.90
9305;DHT22;4690;52.422;13.486;2023-07-31T16:18:25;21.50;99.90
9305;DHT22;4690;52.422;13.486;2023-07-31T16:20:50;21.50;99.90
9305;DHT22;4690;52.422;13.486;2023-07-31T16:23:16;21.40;99.90
9305;DHT22;4690;52.422;13.486;2023-07-31T16:25:42;21.40;99.90
9305;DHT22;4690;52.422;13.486;2023-07-31T16:28:07;21.40;99.90
9305;DHT22;4690;52.422;13.486;2023-07-31T16:30:33;21.30;99.90
9305;DHT22;4690;52.422;13.486;2023-07-31T16:33:00;21.30;99.90
9305;DHT22;4690;52.422;13.486;2023-07-31T16:35:26;21.20;99.90
9305;DHT22;4690;52.422;13.486;2023-07-31T16:37:51;21.20;99.90
9305;DHT22;4690;52.422;13.486;2023-07-31T16:40:17;21.20;99.90
9305;DHT22;4690;52.422;13.486;2023-07-31T16:42:43;21.20;99.90
9305;DHT22;4690;52.422;13.486;2023-07-31T16:45:09;21.20;99.90
9305;DHT22;4690;52.422;13.486;2023-07-31T16:47:34;21.20;99.90
9305;DHT22;4690;52.422;13.486;2023-07-31T16:50:00;21.20;99.90
9305;DHT22;4690;52.422;13.486;2023-07-31T16:52:26;21.20;99.90
9305;DHT22;4690;52.422;13.486;2023-07-31T16:54:53;21.20;99.90
9305;DHT22;4690;52.422;13.486;2023-07-31T16:57:19;21.20;99.90
9305;DHT22;4690;52.422;13.486;2023-07-31T16:59:45;21.20;99.90
9305;DHT22;4690;52.422;13.486;2023-07-31T17:02:10;21.20;99.90
9305;DHT22;4690;52.422;13.486;2023-07-31T17:04:36;21.20;99.90
9305;DHT22;4690;52.422;13.486;2023-07-31T17:07:02;21.20;99.90
9305;DHT22;4690;52.422;13.486;2023-07-31T17:09:28;21.20;99.90
9305;DHT22;4690;52.422;13.486;2023-07-31T17:11:54;21.20;99.90
9305;DHT22;4690;52.422;13.486;2023-07-31T17:14:20;21.20;99.90
9305;DHT22;4690;52.422;13.486;2023-07-31T17:16:46;21.20;99.90
9305;DHT22;4690;52.422;13.486;2023-07-31T17:19:12;21.10;99.90
9305;DHT22;4690;52.422;13.486;2023-07-31T17:21:37;21.20;99.90
9305;DHT22;4690;52.422;13.486;2023-07-31T17:24:03;21.10;99.90
9305;DHT22;4690;52.422;13.486;2023-07-31T17:26:29;21.10;99.90
9305;DHT22;4690;52.422;13.486;2023-07-31T17:28:55;21.10;99.90
9305;DHT22;4690;52.422;13.486;2023-07-31T17:31:21;21.00;99.90
9305;DHT22;4690;52.422;13.486;2023-07-31T17:33:46;21.10;99.90
9305;DHT22;4690;52.422;13.486;2023-07-31T17:36:12;21.00;99.90
9305;DHT22;4690;52.422;13.486;2023-07-31T17:38:38;21.00;99.90
9305;DHT22;4690;52.422;13.486;2023-07-31T17:41:05;21.00;99.90
9305;DHT22;4690;52.422;13.486;2023-07-31T17:43:31;21.00;99.90
9305;DHT22;4690;52.422;13.486;2023-07-31T17:45:56;20.90;99.90
9305;DHT22;4690;52.422;13.486;2023-07-31T17:48:22;20.90;99.90
9305;DHT22;4690;52.422;13.486;2023-07-31T17:50:50;20.90;99.90
9305;DHT22;4690;52.422;13.486;2023-07-31T17:53:22;20.90;99.90
9305;DHT22;4690;52.422;13.486;2023-07-31T17:55:48;20.80;99.90
9305;DHT22;4690;52.422;13.486;2023-07-31T17:58:14;20.80;99.90
9305;DHT22;4690;52.422;13.486;2023-07-31T18:00:40;20.80;99.90
9305;DHT22;4690;52.422;13.486;2023-07-31T18:03:07;20.80;99.90
9305;DHT22;4690;52.422;13.486;2023-07-31T18:05:37;20.80;99.90
9305;DHT22;4690;52.422;13.486;2023-07-31T18:08:03;20.70;99.90
9305;DHT22;4690;52.422;13.486;2023-07-31T18:10:29;20.70;99.90
9305;DHT22;4690;52.422;13.486;2023-07-31T18:12:55;20.70;99.90
9305;DHT22;4690;52.422;13.486;2023-07-31T18:15:21;20.60;99.90
9305;DHT22;4690;52.422;13.486;2023-07-31T18:17:47;20.60;99.90
9305;DHT22;4690;52.422;13.486;2023-07-31T18:20:14;20.50;99.90
9305;DHT22;4690;52.422;13.486;2023-07-31T18:22:40;20.50;99.90
9305;DHT22;4690;52.422;13.486;2023-07-31T18:25:07;20.50;99.90
9305;DHT22;4690;52.422;13.486;2023-07-31T18:27:34;20.40;99.90
9305;DHT22;4690;52.422;13.486;2023-07-31T18:30:00;20.40;99.90
9305;DHT22;4690;52.422;13.486;2023-07-31T18:32:26;20.40;99.90
9305;DHT22;4690;52.422;13.486;2023-07-31T18:34:52;20.40;99.90
9305;DHT22;4690;52.422;13.486;2023-07-31T18:37:18;20.30;99.90
9305;DHT22;4690;52.422;13.486;2023-07-31T18:39:43;20.30;99.90
9305;DHT22;4690;52.422;13.486;2023-07-31T18:42:09;20.30;99.90
9305;DHT22;4690;52.422;13.486;2023-07-31T18:44:35;20.20;99.90
9305;DHT22;4690;52.422;13.486;2023-07-31T18:47:01;20.20;99.90
9305;DHT22;4690;52.422;13.486;2023-07-31T18:49:27;20.20;99.90
9305;DHT22;4690;52.422;13.486;2023-07-31T18:51:53;20.20;99.90
9305;DHT22;4690;52.422;13.486;2023-07-31T18:54:18;20.20;99.90
9305;DHT22;4690;52.422;13.486;2023-07-31T18:56:44;20.10;99.90
9305;DHT22;4690;52.422;13.486;2023-07-31T18:59:10;20.10;99.90
9305;DHT22;4690;52.422;13.486;2023-07-31T19:01:36;20.10;99.90
9305;DHT22;4690;52.422;13.486;2023-07-31T19:04:02;20.00;99.90
9305;DHT22;4690;52.422;13.486;2023-07-31T19:06:30;20.00;99.90
9305;DHT22;4690;52.422;13.486;2023-07-31T19:08:56;20.00;99.90
9305;DHT22;4690;52.422;13.486;2023-07-31T19:11:24;20.00;99.90
9305;DHT22;4690;52.422;13.486;2023-07-31T19:13:50;19.90;99.90
9305;DHT22;4690;52.422;13.486;2023-07-31T19:16:15;19.90;99.90
9305;DHT22;4690;52.422;13.486;2023-07-31T19:18:41;19.90;99.90
9305;DHT22;4690;52.422;13.486;2023-07-31T19:21:08;19.90;99.90
9305;DHT22;4690;52.422;13.486;2023-07-31T19:23:35;19.90;99.90
9305;DHT22;4690;52.422;13.486;2023-07-31T19:26:01;19.80;99.90
9305;DHT22;4690;52.422;13.486;2023-07-31T19:28:29;19.90;99.90
9305;DHT22;4690;52.422;13.486;2023-07-31T19:30:54;19.80;99.90
9305;DHT22;4690;52.422;13.486;2023-07-31T19:33:20;19.80;99.90
9305;DHT22;4690;52.422;13.486;2023-07-31T19:35:59;19.80;99.90
9305;DHT22;4690;52.422;13.486;2023-07-31T19:38:26;19.80;99.90
9305;DHT22;4690;52.422;13.486;2023-07-31T19:40:52;19.70;99.90